createdAt,value
2023-04-20T00:03:41.294Z,11.93
2023-04-20T00:08:45.075Z,3.50
2023-04-20T00:13:48.217Z,7.10
2023-04-20T00:18:52.758Z,4.20
2023-04-20T00:23:55.931Z,4.13
2023-04-20T00:28:59.134Z,6.60
2023-04-20T00:34:04.305Z,4.60
2023-04-20T00:39:07.517Z,4.57
2023-04-20T00:44:14.033Z,4.10
2023-04-20T00:49:19.198Z,4.13
2023-04-20T00:54:24.615Z,3.60
2023-04-20T00:59:28.148Z,3.83
2023-04-20T01:04:32.910Z,5.33
2023-04-20T01:09:38.952Z,4.10
2023-04-20T01:14:43.925Z,4.40
2023-04-20T01:19:49.288Z,4.17
2023-04-20T01:24:54.248Z,4.10
2023-04-20T01:29:57.593Z,4.07
2023-04-20T01:35:00.894Z,4.20
2023-04-20T01:40:06.818Z,4.97
2023-04-20T01:45:10.961Z,4.50
2023-04-20T01:50:14.265Z,3.93
2023-04-20T01:55:20.146Z,3.57
2023-04-20T02:00:23.814Z,3.90
2023-04-20T02:05:27.198Z,5.10
2023-04-20T02:10:32.839Z,5.00
2023-04-20T02:15:36.034Z,4.07
2023-04-20T02:20:40.202Z,4.27
2023-04-20T02:25:44.938Z,4.80
2023-04-20T02:30:48.578Z,4.17
2023-04-20T02:35:51.714Z,6.57
2023-04-20T02:40:56.322Z,4.60
2023-04-20T02:46:00.103Z,4.23
2023-04-20T02:51:03.567Z,8.30
2023-04-20T02:56:16.524Z,3.63
2023-04-20T03:01:23.748Z,8.27
2023-04-20T03:06:38.630Z,6.27
2023-04-20T03:11:44.638Z,4.47
2023-04-20T03:16:55.523Z,4.67
2023-04-20T03:21:58.861Z,4.30
2023-04-20T03:27:04.233Z,4.60
2023-04-20T03:32:15.363Z,5.60
2023-04-20T03:37:18.877Z,4.03
2023-04-20T03:42:25.314Z,4.13
2023-04-20T03:47:28.452Z,3.97
2023-04-20T03:52:31.914Z,5.27
2023-04-20T03:57:40.809Z,4.63
2023-04-20T04:02:44.914Z,4.97
2023-04-20T04:07:49.617Z,3.90
2023-04-20T04:12:55.006Z,4.90
2023-04-20T04:17:59.314Z,5.13
2023-04-20T04:23:03.883Z,5.13
2023-04-20T04:28:16.970Z,3.93
2023-04-20T04:33:29.966Z,4.27
2023-04-20T04:38:34.622Z,4.67
2023-04-20T04:43:39.639Z,5.20
2023-04-20T04:48:56.579Z,4.50
2023-04-20T04:54:00.989Z,4.17
2023-04-20T04:59:05.687Z,3.87
2023-04-20T05:04:09.250Z,4.20
2023-04-20T05:09:12.910Z,3.90
2023-04-20T05:14:17.445Z,3.97
2023-04-20T05:19:20.703Z,4.03
2023-04-20T05:24:23.990Z,5.10
2023-04-20T05:29:28.438Z,6.77
2023-04-20T05:34:32.686Z,6.80
2023-04-20T05:39:36.103Z,4.57
2023-04-20T05:44:41.257Z,5.53
2023-04-20T05:49:46.125Z,7.07
2023-04-20T05:54:49.825Z,7.83
2023-04-20T05:59:56.011Z,7.83
2023-04-20T06:05:01.082Z,11.17
2023-04-20T06:10:05.489Z,9.30
2023-04-20T06:15:11.468Z,11.00
2023-04-20T06:20:14.697Z,11.47
2023-04-20T06:25:17.965Z,10.77
2023-04-20T06:30:22.755Z,13.70
2023-04-20T06:35:26.535Z,13.20
2023-04-20T06:40:30.597Z,10.20
2023-04-20T06:45:35.285Z,11.47
2023-04-20T06:50:38.496Z,11.67
2023-04-20T06:55:41.853Z,12.90
2023-04-20T07:00:47.702Z,10.07
2023-04-20T07:05:51.134Z,14.37
2023-04-20T07:10:54.371Z,12.67
2023-04-20T07:15:59.533Z,14.00
2023-04-20T07:21:02.819Z,19.93
2023-04-20T07:26:06.257Z,15.43
2023-04-20T07:31:10.987Z,12.80
2023-04-20T07:36:14.335Z,21.30
2023-04-20T07:41:17.738Z,11.43
2023-04-20T07:46:23.274Z,24.73
2023-04-20T07:51:26.684Z,10.17
2023-04-20T07:56:29.959Z,11.80
2023-04-20T08:01:34.991Z,12.70
2023-04-20T08:06:38.262Z,13.47
2023-04-20T08:11:41.808Z,10.77
2023-04-20T08:16:46.602Z,10.97
2023-04-20T08:21:50.017Z,23.17
2023-04-20T08:26:53.278Z,13.03
2023-04-20T08:31:57.968Z,12.20
2023-04-20T08:37:01.623Z,6.77
2023-04-20T08:42:05.018Z,12.90
2023-04-20T08:47:11.185Z,5.03
2023-04-20T08:52:14.432Z,9.07
2023-04-20T08:57:17.995Z,13.57
2023-04-20T09:02:23.349Z,6.97
2023-04-20T09:07:26.884Z,6.33
2023-04-20T09:12:30.200Z,6.77
2023-04-20T09:17:37.127Z,6.53
2023-04-20T09:22:43.386Z,5.80
2023-04-20T09:27:56.986Z,6.10
2023-04-20T09:33:05.432Z,5.03
2023-04-20T09:38:08.888Z,7.80
2023-04-20T09:43:20.146Z,4.93
2023-04-20T09:48:25.870Z,5.33
2023-04-20T09:53:29.527Z,4.90
2023-04-20T09:58:34.768Z,5.10
2023-04-20T10:03:42.943Z,5.70
2023-04-20T10:08:46.234Z,5.27
2023-04-20T10:13:49.352Z,11.97
2023-04-20T10:19:06.291Z,14.73
2023-04-20T10:24:10.998Z,19.97
2023-04-20T10:29:25.526Z,13.87
2023-04-20T10:34:34.055Z,5.97
2023-04-20T10:39:38.116Z,7.10
2023-04-20T10:44:48.940Z,7.83
2023-04-20T10:49:53.529Z,6.10
2023-04-20T10:54:56.789Z,4.93
2023-04-20T11:00:00.002Z,6.60
2023-04-20T11:05:13.574Z,5.20
2023-04-20T11:10:17.154Z,7.30
2023-04-20T11:15:20.407Z,7.50
2023-04-20T11:20:25.110Z,8.40
2023-04-20T11:25:28.404Z,7.03
2023-04-20T11:30:39.702Z,9.13
2023-04-20T11:35:45.482Z,7.53
2023-04-20T11:40:48.571Z,8.50
2023-04-20T11:45:51.960Z,8.80
2023-04-20T11:50:56.546Z,11.40
2023-04-20T11:55:59.784Z,9.33
2023-04-20T12:01:03.029Z,20.00
2023-04-20T12:06:07.806Z,9.10
2023-04-20T12:11:11.126Z,19.93
2023-04-20T12:16:14.398Z,9.87
2023-04-20T12:21:19.475Z,16.50
2023-04-20T12:26:31.994Z,106.87
2023-04-20T12:31:40.562Z,133.13
2023-04-20T12:36:45.224Z,66.40
2023-04-20T12:41:48.699Z,88.30
2023-04-20T12:46:51.839Z,71.77
2023-04-20T12:51:56.536Z,59.37
2023-04-20T12:56:59.810Z,50.77
2023-04-20T13:02:03.842Z,35.00
2023-04-20T13:07:08.501Z,25.07
2023-04-20T13:12:11.600Z,55.57
2023-04-20T13:17:14.778Z,25.20
2023-04-20T13:22:19.447Z,18.87
2023-04-20T13:27:22.704Z,24.53
2023-04-20T13:32:26.048Z,18.70
2023-04-20T13:37:33.131Z,20.23
2023-04-20T13:42:36.707Z,20.43
2023-04-20T13:47:40.826Z,16.00
2023-04-20T13:52:45.473Z,12.80
2023-04-20T13:57:48.809Z,10.33
2023-04-20T14:02:52.591Z,11.33
2023-04-20T14:08:01.494Z,9.60
2023-04-20T14:13:04.987Z,12.90
2023-04-20T14:18:08.611Z,14.17
2023-04-20T14:23:13.220Z,21.13
2023-04-20T14:28:17.847Z,16.07
2023-04-20T14:33:21.034Z,14.97
2023-04-20T14:38:25.925Z,17.33
2023-04-20T14:43:31.320Z,12.90
2023-04-20T14:48:35.702Z,15.40
2023-04-20T14:53:40.560Z,14.37
2023-04-20T14:58:43.737Z,16.90
2023-04-20T15:03:47.332Z,22.23
2023-04-20T15:08:54.324Z,25.93
2023-04-20T15:13:57.585Z,39.50
2023-04-20T15:19:00.777Z,32.40
2023-04-20T15:24:06.370Z,43.07
2023-04-20T15:29:09.600Z,41.13
2023-04-20T15:34:15.537Z,82.80
2023-04-20T15:39:20.235Z,21.50
2023-04-20T15:44:23.428Z,20.00
2023-04-20T15:49:26.690Z,20.20
2023-04-20T15:54:31.464Z,16.60
2023-04-20T15:59:35.009Z,17.50
2023-04-20T16:04:38.428Z,16.93
2023-04-20T16:09:43.377Z,28.57
2023-04-20T16:14:47.181Z,18.63
2023-04-20T16:19:50.634Z,24.93
2023-04-20T16:24:55.324Z,20.03
2023-04-20T16:29:58.871Z,25.20
2023-04-20T16:35:02.183Z,25.60
2023-04-20T16:40:09.331Z,22.37
2023-04-20T16:45:12.930Z,21.53
2023-04-20T16:50:19.865Z,31.90
2023-04-20T16:55:27.044Z,27.50
2023-04-20T17:00:32.064Z,26.83
2023-04-20T17:05:40.336Z,26.73
2023-04-20T17:10:47.225Z,34.10
2023-04-20T17:15:50.435Z,30.80
2023-04-20T17:20:54.716Z,33.13
2023-04-20T17:25:59.193Z,39.27
2023-04-20T17:31:02.383Z,31.37
2023-04-20T17:36:06.232Z,29.90
2023-04-20T17:41:10.968Z,36.30
2023-04-20T17:46:14.832Z,32.17
2023-04-20T17:51:18.565Z,32.60
2023-04-20T17:56:25.636Z,34.33
2023-04-20T18:01:29.100Z,30.77
2023-04-20T18:06:33.728Z,31.50
2023-04-20T18:11:39.065Z,33.07
2023-04-20T18:16:42.368Z,33.27
2023-04-20T18:21:46.192Z,33.47
2023-04-20T18:26:50.909Z,37.23
2023-04-20T18:31:56.173Z,32.67
2023-04-20T18:37:00.115Z,33.10
2023-04-20T18:42:04.918Z,32.17
2023-04-20T18:47:08.490Z,30.23
2023-04-20T18:52:12.608Z,35.07
2023-04-20T18:57:18.031Z,34.53
2023-04-20T19:02:22.002Z,34.83
2023-04-20T19:07:25.618Z,35.37
2023-04-20T19:12:30.668Z,26.63
2023-04-20T19:17:34.018Z,26.80
2023-04-20T19:22:39.953Z,34.43
2023-04-20T19:27:44.514Z,34.77
2023-04-20T19:32:49.455Z,42.17
2023-04-20T19:38:00.720Z,30.60
2023-04-20T19:43:14.263Z,32.20
2023-04-20T19:48:17.954Z,42.23
2023-04-20T19:53:21.513Z,33.70
2023-04-20T19:58:27.357Z,39.90
2023-04-20T20:03:32.597Z,36.27
2023-04-20T20:08:36.532Z,33.03
2023-04-20T20:13:41.812Z,39.97
2023-04-20T20:18:45.699Z,33.00
2023-04-20T20:23:49.172Z,35.97
2023-04-20T20:28:54.400Z,32.07
2023-04-20T20:33:57.588Z,30.53
2023-04-20T20:39:01.094Z,28.70
2023-04-20T20:44:06.491Z,30.77
2023-04-20T20:49:10.557Z,37.83
2023-04-20T20:54:13.988Z,36.47
2023-04-20T20:59:19.217Z,33.33
2023-04-20T21:04:22.759Z,30.73
2023-04-20T21:09:26.754Z,31.80
2023-04-20T21:14:31.443Z,38.23
2023-04-20T21:19:34.665Z,44.67
2023-04-20T21:24:38.176Z,37.23
2023-04-20T21:29:42.780Z,38.63
2023-04-20T21:34:46.030Z,34.47
2023-04-20T21:39:50.614Z,44.23
2023-04-20T21:44:55.269Z,36.43
2023-04-20T21:49:58.590Z,39.77
2023-04-20T21:55:02.237Z,33.37
2023-04-20T22:00:10.393Z,33.90
2023-04-20T22:05:21.904Z,34.30
2023-04-20T22:10:25.389Z,40.03
2023-04-20T22:15:30.352Z,35.00
2023-04-20T22:20:33.498Z,36.57
2023-04-20T22:25:36.836Z,33.20
2023-04-20T22:30:42.561Z,32.47
2023-04-20T22:35:45.923Z,33.37
2023-04-20T22:40:49.135Z,34.83
2023-04-20T22:45:53.879Z,39.03
2023-04-20T22:51:00.771Z,36.40
2023-04-20T22:56:05.945Z,37.90
2023-04-20T23:01:10.801Z,35.40
2023-04-20T23:06:18.733Z,36.47
2023-04-20T23:11:22.358Z,33.83
2023-04-20T23:16:28.148Z,35.93
2023-04-20T23:21:31.360Z,36.67
2023-04-20T23:26:34.604Z,40.70
2023-04-20T23:31:39.285Z,34.60
2023-04-20T23:36:42.423Z,30.33
2023-04-20T23:41:45.615Z,32.97
2023-04-20T23:46:50.595Z,40.07
2023-04-20T23:51:53.710Z,41.27
2023-04-20T23:56:57.068Z,40.40
